Time;durP1;ratioP1;P1;durP2;ratioP2;P2;SDS_P1;SDS_P2;PMS_P1;PMS_P2;Temp;Humidity;BMP_temperature;BMP_pressure;BME280_temperature;BME280_humidity;BME280_pressure;Samples;Min_cycle;Max_cycle;Signal;HPM_P1;HPM_P2
2023/09/25 00:00:30;;;;;;;;;5.00;3.67;;;;;13.55;100.00;101892.44;5095292;27;45575;-76
2023/09/25 00:02:56;;;;;;;;;4.00;4.00;;;;;13.51;100.00;101892.66;5101716;27;46789;-76
2023/09/25 00:05:22;;;;;;;;;8.00;4.00;;;;;13.49;100.00;101889.19;5097948;27;46007;-75
2023/09/25 00:07:47;;;;;;;;;5.00;5.00;;;;;13.48;100.00;101892.78;5099107;27;45424;-76
2023/09/25 00:10:12;;;;;;;;;2.33;2.00;;;;;13.47;100.00;101893.72;5105222;27;45621;-76
2023/09/25 00:12:38;;;;;;;;;7.00;3.67;;;;;13.45;100.00;101898.19;5098093;27;45486;-76
2023/09/25 00:15:05;;;;;;;;;5.00;5.00;;;;;13.42;100.00;101901.84;5108880;27;45419;-76
2023/09/25 00:17:30;;;;;;;;;5.00;4.00;;;;;13.40;100.00;101905.50;5109601;27;45384;-75
2023/09/25 00:19:56;;;;;;;;;6.00;4.33;;;;;13.33;100.00;101902.25;5103555;27;45447;-75
2023/09/25 00:22:21;;;;;;;;;3.00;3.00;;;;;13.34;100.00;101900.47;5096930;27;46280;-76
2023/09/25 00:24:47;;;;;;;;;4.00;4.00;;;;;13.33;100.00;101901.38;5099095;27;45304;-76
2023/09/25 00:27:12;;;;;;;;;4.00;4.00;;;;;13.32;100.00;101897.84;5102327;27;44794;-77
2023/09/25 00:29:38;;;;;;;;;7.00;4.00;;;;;13.31;100.00;101903.25;5115786;27;45356;-76
2023/09/25 00:32:04;;;;;;;;;4.33;4.33;;;;;13.16;100.00;101880.81;5100463;27;46322;-76
2023/09/25 00:34:29;;;;;;;;;7.00;5.00;;;;;13.28;100.00;101903.38;5099499;27;45509;-76
2023/09/25 00:36:54;;;;;;;;;6.00;4.00;;;;;13.26;100.00;101895.44;5086722;27;45730;-76
2023/09/25 00:39:20;;;;;;;;;6.50;5.50;;;;;13.26;100.00;101905.19;5096969;27;45499;-75
2023/09/25 00:41:45;;;;;;;;;4.00;4.00;;;;;13.24;100.00;101893.78;5116099;27;47117;-75
2023/09/25 00:44:11;;;;;;;;;3.67;3.67;;;;;13.20;100.00;101897.50;5111419;27;45514;-75
2023/09/25 00:46:36;;;;;;;;;5.00;5.00;;;;;13.19;100.00;101895.75;5122387;27;45443;-76
2023/09/25 00:49:02;;;;;;;;;3.67;3.67;;;;;13.16;100.00;101898.53;5102643;27;45362;-76
2023/09/25 00:51:28;;;;;;;;;4.00;3.00;;;;;13.15;100.00;101896.81;5097471;27;46874;-75
2023/09/25 00:53:55;;;;;;;;;5.00;5.00;;;;;13.12;100.00;101884.50;5099710;27;45471;-76
2023/09/25 00:56:20;;;;;;;;;4.67;4.33;;;;;13.11;100.00;101879.28;5101074;27;45349;-76
2023/09/25 00:58:46;;;;;;;;;6.00;5.00;;;;;13.13;100.00;101882.72;5109718;27;45448;-75
2023/09/25 01:01:12;;;;;;;;;5.00;5.00;;;;;13.12;100.00;101876.53;5109043;27;46788;-75
2023/09/25 01:03:37;;;;;;;;;4.00;4.00;;;;;13.11;100.00;101882.78;5092839;27;45377;-75
2023/09/25 01:06:04;;;;;;;;;5.00;3.33;;;;;13.10;100.00;101877.53;5099153;27;45315;-75
2023/09/25 01:08:30;;;;;;;;;5.67;4.33;;;;;13.11;100.00;101884.59;5108213;27;45622;-75
2023/09/25 01:10:55;;;;;;;;;4.00;4.00;;;;;13.04;100.00;101871.53;5099627;27;46604;-75
2023/09/25 01:13:21;;;;;;;;;4.00;4.00;;;;;13.12;100.00;101881.00;5113946;27;45500;-76
2023/09/25 01:15:46;;;;;;;;;3.33;3.33;;;;;13.07;100.00;101881.16;5102845;27;45567;-75
2023/09/25 01:18:12;;;;;;;;;5.00;4.00;;;;;13.05;100.00;101875.03;5104202;27;45291;-75
2023/09/25 01:20:37;;;;;;;;;4.00;4.00;;;;;12.98;100.00;101868.25;5102476;27;46048;-76
2023/09/25 01:23:03;;;;;;;;;5.00;5.00;;;;;13.06;100.00;101877.63;5120018;27;45597;-76
2023/09/25 01:25:29;;;;;;;;;4.67;4.67;;;;;13.01;100.00;101871.66;5111852;27;45822;-75
2023/09/25 01:27:55;;;;;;;;;4.00;4.00;;;;;12.99;100.00;101875.25;5103911;27;45510;-75
2023/09/25 01:30:20;;;;;;;;;4.33;4.33;;;;;13.00;100.00;101877.88;5104500;27;45386;-75
2023/09/25 01:32:48;;;;;;;;;4.00;4.00;;;;;13.01;100.00;101881.41;5096521;27;45467;-76
2023/09/25 01:35:17;;;;;;;;;4.00;4.00;;;;;12.98;100.00;101885.06;5108084;27;45583;-74
2023/09/25 01:37:43;;;;;;;;;5.67;4.00;;;;;12.94;100.00;101866.63;5089721;27;45708;-76
2023/09/25 01:40:12;;;;;;;;;6.67;4.33;;;;;12.92;100.00;101882.66;5095903;27;45370;-76
2023/09/25 01:42:37;;;;;;;;;3.33;3.33;;;;;12.77;100.00;101862.00;5104575;27;45330;-76
2023/09/25 01:45:03;;;;;;;;;5.00;4.00;;;;;12.89;100.00;101873.94;5094009;27;45965;-75
2023/09/25 01:47:29;;;;;;;;;7.00;5.67;;;;;12.88;100.00;101877.50;5104064;27;45474;-75
2023/09/25 01:49:54;;;;;;;;;3.67;3.67;;;;;12.86;100.00;101874.06;5102349;27;47051;-75
2023/09/25 01:52:19;;;;;;;;;4.00;2.67;;;;;12.82;100.00;101864.47;5096317;27;45478;-75
2023/09/25 01:54:45;;;;;;;;;3.00;3.00;;;;;12.66;100.00;101850.06;5105289;27;45450;-75
2023/09/25 01:57:10;;;;;;;;;6.67;4.00;;;;;12.82;100.00;101872.44;5098893;27;45454;-76
2023/09/25 01:59:36;;;;;;;;;2.67;2.00;;;;;12.76;100.00;101862.91;5105084;27;47842;-76
2023/09/25 02:02:01;;;;;;;;;5.33;4.33;;;;;12.78;100.00;101866.38;5102064;27;44802;-75
2023/09/25 02:04:27;;;;;;;;;3.00;3.00;;;;;12.77;100.00;101874.38;5102257;27;45433;-76
2023/09/25 02:06:52;;;;;;;;;4.33;2.33;;;;;12.75;100.00;101870.94;5100825;27;45678;-75
2023/09/25 02:09:18;;;;;;;;;4.00;4.00;;;;;12.73;100.00;101867.50;5124333;27;45385;-75
2023/09/25 02:11:43;;;;;;;;;6.67;4.33;;;;;12.65;100.00;101851.84;5098820;27;45902;-76
2023/09/25 02:14:08;;;;;;;;;5.00;5.00;;;;;12.71;100.00;101864.03;5103050;27;45484;-76
2023/09/25 02:16:34;;;;;;;;;3.33;3.33;;;;;12.53;100.00;101833.78;5102095;27;45410;-76
2023/09/25 02:19:00;;;;;;;;;2.33;2.00;;;;;12.65;100.00;101858.94;5100294;27;47599;-76
2023/09/25 02:21:25;;;;;;;;;4.00;4.00;;;;;12.66;100.00;101866.88;5107050;27;45624;-76
2023/09/25 02:23:50;;;;;;;;;6.67;5.67;;;;;12.62;100.00;101862.59;5101087;27;45374;-75
2023/09/25 02:26:16;;;;;;;;;7.67;5.67;;;;;12.64;100.00;101870.47;5104324;27;45504;-76
2023/09/25 02:28:41;;;;;;;;;3.00;3.00;;;;;12.63;100.00;101868.78;5112752;27;46254;-76
2023/09/25 02:31:07;;;;;;;;;5.00;3.00;;;;;12.56;100.00;101854.88;5104638;27;45477;-75
2023/09/25 02:33:33;;;;;;;;;6.33;4.00;;;;;12.58;100.00;101868.06;5109859;27;45383;-76
2023/09/25 02:36:06;;;;;;;;;3.00;3.00;;;;;12.57;100.00;101868.97;5104148;27;45316;-76
2023/09/25 02:38:31;;;;;;;;;3.00;3.00;;;;;12.53;100.00;101862.97;5107420;27;45611;-76
2023/09/25 02:40:57;;;;;;;;;4.00;4.00;;;;;12.53;100.00;101860.31;5112972;27;45231;-76
2023/09/25 02:43:22;;;;;;;;;3.33;3.33;;;;;12.52;100.00;101855.91;5121982;27;45342;-75
2023/09/25 02:45:47;;;;;;;;;3.33;3.33;;;;;12.43;100.00;101843.00;5110974;27;45459;-75
2023/09/25 02:48:13;;;;;;;;;4.33;3.00;;;;;12.45;100.00;101860.59;5108987;27;45370;-76
2023/09/25 02:50:38;;;;;;;;;4.00;3.00;;;;;12.31;100.00;101831.06;5128055;27;45393;-75
2023/09/25 02:53:04;;;;;;;;;5.00;4.00;;;;;12.43;100.00;101866.88;5106864;27;45329;-76
2023/09/25 02:55:29;;;;;;;;;4.67;3.00;;;;;12.43;100.00;101877.50;5100133;27;45513;-75
2023/09/25 02:57:54;;;;;;;;;4.33;4.33;;;;;12.39;100.00;101866.13;5105790;27;46975;-75
2023/09/25 03:00:21;;;;;;;;;5.00;5.00;;;;;12.40;100.00;101869.66;5077984;27;45577;-75
2023/09/25 03:02:46;;;;;;;;;4.00;3.00;;;;;12.35;100.00;101864.50;5102296;27;45507;-76
2023/09/25 03:05:12;;;;;;;;;4.00;4.00;;;;;12.33;100.00;101865.50;5088808;27;45567;-75
2023/09/25 03:07:38;;;;;;;;;3.67;3.00;;;;;12.35;100.00;101871.59;5107380;27;46349;-75
2023/09/25 03:10:04;;;;;;;;;5.00;4.00;;;;;12.33;100.00;101876.97;5111506;27;45560;-75
2023/09/25 03:12:29;;;;;;;;;6.00;6.00;;;;;12.32;100.00;101874.38;5099960;27;45492;-74
2023/09/25 03:14:55;;;;;;;;;2.67;2.67;;;;;12.27;100.00;101863.06;5113503;27;45566;-75
2023/09/25 03:17:20;;;;;;;;;3.33;3.33;;;;;12.24;100.00;101868.47;5120106;27;48010;-75
2023/09/25 03:19:45;;;;;;;;;2.67;2.67;;;;;12.26;100.00;101871.94;5098443;27;45474;-75
2023/09/25 03:22:11;;;;;;;;;3.00;3.00;;;;;12.24;100.00;101865.81;5121862;27;45313;-75
2023/09/25 03:24:36;;;;;;;;;6.00;4.00;;;;;12.24;100.00;101869.34;5109059;27;45002;-75
2023/09/25 03:27:02;;;;;;;;;4.00;4.00;;;;;12.18;100.00;101866.03;5105486;27;47255;-75
2023/09/25 03:29:27;;;;;;;;;3.33;3.33;;;;;12.15;100.00;101858.22;5102801;27;45491;-75
2023/09/25 03:31:52;;;;;;;;;4.00;3.00;;;;;12.03;100.00;101843.63;5105736;27;45738;-74
2023/09/25 03:34:20;;;;;;;;;4.33;4.33;;;;;12.18;100.00;101881.97;5098622;27;45460;-75
2023/09/25 03:36:45;;;;;;;;;5.33;4.00;;;;;12.16;100.00;101882.03;5098128;27;46848;-74
2023/09/25 03:39:10;;;;;;;;;5.67;5.67;;;;;12.10;100.00;101882.25;5101724;27;45640;-75
2023/09/25 03:41:36;;;;;;;;;4.00;4.00;;;;;12.13;100.00;101886.56;5099828;27;45374;-76
2023/09/25 03:44:01;;;;;;;;;5.00;4.00;;;;;12.12;100.00;101892.78;5094158;27;45631;-75
2023/09/25 03:46:26;;;;;;;;;4.33;4.33;;;;;12.11;100.00;101893.69;5101100;27;45381;-75
2023/09/25 03:48:52;;;;;;;;;7.67;4.00;;;;;12.06;100.00;101882.41;5111590;27;45410;-75
2023/09/25 03:51:17;;;;;;;;;7.00;5.67;;;;;12.07;100.00;101898.28;5107627;27;45306;-75
2023/09/25 03:53:42;;;;;;;;;8.33;6.33;;;;;12.06;100.00;101901.84;5116111;27;45386;-75
2023/09/25 03:56:08;;;;;;;;;10.00;6.00;;;;;12.05;100.00;101904.53;5110826;27;47713;-76
2023/09/25 03:58:33;;;;;;;;;4.00;4.00;;;;;12.00;100.00;101894.97;5102779;27;45435;-75
2023/09/25 04:00:59;;;;;;;;;5.33;5.33;;;;;12.01;100.00;101894.03;5113761;27;45840;-75
2023/09/25 04:03:25;;;;;;;;;5.67;4.67;;;;;12.04;100.00;101897.53;5105341;27;45539;-75
2023/09/25 04:05:50;;;;;;;;;5.00;3.67;;;;;12.02;100.00;101900.22;5102414;27;47831;-75
2023/09/25 04:08:15;;;;;;;;;4.67;4.67;;;;;12.03;100.00;101915.22;5112608;27;45271;-75
2023/09/25 04:10:41;;;;;;;;;6.33;6.00;;;;;12.04;100.00;101910.78;5106735;27;45555;-76
2023/09/25 04:13:08;;;;;;;;;7.00;5.33;;;;;12.02;100.00;101909.03;5097441;27;45539;-76
2023/09/25 04:15:33;;;;;;;;;5.00;5.00;;;;;11.95;100.00;101896.03;5101379;27;48178;-75
2023/09/25 04:17:59;;;;;;;;;5.67;5.67;;;;;12.00;100.00;101912.66;5099045;27;45765;-76
2023/09/25 04:20:24;;;;;;;;;6.33;5.00;;;;;11.91;100.00;101903.25;5087975;27;45388;-75
2023/09/25 04:22:56;;;;;;;;;7.00;5.00;;;;;11.96;100.00;101909.25;5102058;27;45251;-75
2023/09/25 04:25:21;;;;;;;;;10.00;5.00;;;;;11.95;100.00;101907.53;5098262;27;45682;-75
2023/09/25 04:27:53;;;;;;;;;5.00;4.67;;;;;11.91;100.00;101903.25;5091313;27;45298;-75
2023/09/25 04:30:20;;;;;;;;;6.00;6.00;;;;;11.93;100.00;101913.81;5100000;27;45452;-75
2023/09/25 04:32:47;;;;;;;;;5.00;5.00;;;;;11.90;100.00;101903.31;5103947;27;45402;-75
2023/09/25 04:35:15;;;;;;;;;5.67;5.67;;;;;11.91;100.00;101908.53;5093754;27;48142;-76
2023/09/25 04:37:41;;;;;;;;;8.33;5.33;;;;;11.90;100.00;101901.53;5097188;27;45523;-75
2023/09/25 04:40:21;;;;;;;;;7.33;6.67;;;;;11.89;100.00;101894.47;5098852;27;45384;-75
2023/09/25 04:42:47;;;;;;;;;7.00;7.00;;;;;11.84;100.00;101901.75;5088751;27;46369;-76
2023/09/25 04:45:13;;;;;;;;;8.67;5.67;;;;;11.86;100.00;101912.28;5100527;27;46216;-75
2023/09/25 04:47:42;;;;;;;;;7.67;6.00;;;;;11.83;100.00;101913.25;5106122;27;45460;-76
2023/09/25 04:50:09;;;;;;;;;7.00;6.00;;;;;11.86;100.00;101922.88;5100409;27;45344;-76
2023/09/25 04:52:36;;;;;;;;;5.33;5.33;;;;;11.85;100.00;101935.25;5100736;27;45422;-77
2023/09/25 04:55:05;;;;;;;;;7.67;6.33;;;;;11.78;100.00;101919.66;5099011;27;45726;-76
2023/09/25 04:57:31;;;;;;;;;9.33;6.00;;;;;11.80;100.00;101933.69;5089805;27;45408;-76
2023/09/25 04:59:56;;;;;;;;;5.00;5.00;;;;;11.81;100.00;101928.31;5117725;27;45709;-75
2023/09/25 05:02:22;;;;;;;;;5.00;5.00;;;;;11.81;100.00;101932.78;5098106;27;45366;-75
2023/09/25 05:04:47;;;;;;;;;4.67;4.00;;;;;11.71;100.00;101920.78;5111873;27;47849;-76
2023/09/25 05:07:12;;;;;;;;;5.00;5.00;;;;;11.82;100.00;101939.81;5102814;27;45441;-76
2023/09/25 05:09:38;;;;;;;;;11.33;6.00;;;;;11.78;100.00;101938.19;5097532;27;45517;-76
2023/09/25 05:12:03;;;;;;;;;4.00;4.00;;;;;11.74;100.00;101934.78;5105213;27;45525;-76
2023/09/25 05:14:29;;;;;;;;;5.00;5.00;;;;;11.76;100.00;101945.31;5097036;27;46595;-76
2023/09/25 05:16:55;;;;;;;;;8.67;6.67;;;;;11.76;100.00;101930.28;5098599;27;45847;-75
2023/09/25 05:19:20;;;;;;;;;6.67;6.33;;;;;11.73;100.00;101927.75;5100918;27;45898;-77
2023/09/25 05:21:46;;;;;;;;;6.33;6.33;;;;;11.75;100.00;101936.50;5091897;27;45661;-76
2023/09/25 05:24:12;;;;;;;;;10.67;8.33;;;;;11.74;100.00;101939.22;5104504;27;46810;-76
2023/09/25 05:26:37;;;;;;;;;8.33;7.67;;;;;11.74;100.00;101939.22;5099641;27;45423;-76
2023/09/25 05:29:03;;;;;;;;;9.33;7.67;;;;;11.70;100.00;101929.59;5096397;27;45499;-75
2023/09/25 05:31:28;;;;;;;;;8.33;8.00;;;;;11.70;100.00;101927.84;5109237;27;45538;-75
2023/09/25 05:33:54;;;;;;;;;8.00;6.00;;;;;11.74;100.00;101931.25;5102058;27;46932;-76
2023/09/25 05:36:20;;;;;;;;;7.33;6.33;;;;;11.72;100.00;101938.38;5096787;27;45476;-76
2023/09/25 05:38:45;;;;;;;;;9.67;9.00;;;;;11.67;100.00;101932.34;5094882;27;45311;-76
2023/09/25 05:41:11;;;;;;;;;9.67;8.00;;;;;11.72;100.00;101944.56;5094897;27;46449;-76
2023/09/25 05:43:38;;;;;;;;;8.67;7.00;;;;;11.72;100.00;101946.31;5101569;27;47544;-76
2023/09/25 05:46:03;;;;;;;;;9.00;8.00;;;;;11.72;100.00;101941.91;5097951;27;45414;-75
2023/09/25 05:48:29;;;;;;;;;9.67;8.33;;;;;11.71;100.00;101950.78;5098463;27;46203;-76
2023/09/25 05:50:54;;;;;;;;;9.00;7.00;;;;;11.71;100.00;101950.78;5090578;27;45691;-75
2023/09/25 05:53:21;;;;;;;;;7.00;6.00;;;;;11.72;100.00;101952.50;5091198;27;47054;-76
2023/09/25 05:55:47;;;;;;;;;7.00;7.00;;;;;11.73;100.00;101969.28;5105788;27;45393;-76
2023/09/25 05:58:13;;;;;;;;;13.33;9.00;;;;;11.68;100.00;101950.00;5101483;27;45380;-74
2023/09/25 06:00:44;;;;;;;;;7.00;7.00;;;;;11.75;100.00;101960.34;5104716;27;45254;-75
2023/09/25 06:03:09;;;;;;;;;12.00;6.67;;;;;11.77;100.00;101955.00;5102650;27;45370;-75
2023/09/25 06:05:36;;;;;;;;;9.33;8.33;;;;;11.79;100.00;101961.97;5088894;27;45464;-75
2023/09/25 06:08:01;;;;;;;;;9.00;9.00;;;;;11.77;100.00;101950.56;5093942;27;45275;-74
2023/09/25 06:10:26;;;;;;;;;11.67;10.00;;;;;11.83;100.00;101965.41;5093812;27;45330;-74
2023/09/25 06:12:52;;;;;;;;;7.00;6.00;;;;;11.84;100.00;101959.19;5089390;27;48266;-74
2023/09/25 06:15:18;;;;;;;;;7.00;5.00;;;;;11.86;100.00;101955.56;5099552;27;45624;-74
2023/09/25 06:17:45;;;;;;;;;9.00;8.00;;;;;11.91;100.00;101966.03;5094805;27;45311;-75
2023/09/25 06:20:17;;;;;;;;;10.67;7.00;;;;;11.94;100.00;101968.56;5096012;27;46501;-75
2023/09/25 06:22:46;;;;;;;;;7.67;7.67;;;;;11.94;100.00;101961.44;5093731;27;47317;-75
2023/09/25 06:25:17;;;;;;;;;10.67;6.67;;;;;12.01;100.00;101972.72;5090652;27;45399;-75
2023/09/25 06:27:45;;;;;;;;;9.67;8.00;;;;;12.06;100.00;101970.78;5094208;27;45283;-74
2023/09/25 06:30:12;;;;;;;;;9.00;6.00;;;;;12.11;100.00;101968.81;5101112;27;45500;-74
2023/09/25 06:32:37;;;;;;;;;11.00;10.00;;;;;12.17;100.00;101978.38;5098313;27;46790;-74
2023/09/25 06:35:04;;;;;;;;;10.67;10.67;;;;;12.14;100.00;101952.81;5104125;27;47051;-74
2023/09/25 06:37:30;;;;;;;;;7.67;7.67;;;;;12.30;100.00;101963.75;5092151;27;45434;-74
2023/09/25 06:39:55;;;;;;;;;13.00;11.67;;;;;12.36;100.00;101960.88;5094308;27;45671;-74
2023/09/25 06:42:21;;;;;;;;;13.67;10.00;;;;;12.42;100.00;101953.56;5101248;27;45933;-74
2023/09/25 06:44:46;;;;;;;;;12.67;12.00;;;;;12.56;100.00;101968.13;5085040;27;45363;-75
2023/09/25 06:47:12;;;;;;;;;9.33;9.33;;;;;12.66;100.00;101967.72;5087104;27;45342;-75
2023/09/25 06:49:37;;;;;;;;;11.00;10.67;;;;;12.79;100.00;101976.09;5100774;27;45232;-74
2023/09/25 06:52:02;;;;;;;;;3.00;2.67;;;;;12.89;100.00;101980.97;5089082;27;45367;-75
2023/09/25 06:54:28;;;;;;;;;7.67;7.67;;;;;12.99;100.00;101985.00;5100362;27;45362;-75
2023/09/25 06:56:53;;;;;;;;;10.00;9.00;;;;;13.10;100.00;101983.78;5096186;27;45173;-75
2023/09/25 06:59:18;;;;;;;;;8.00;5.00;;;;;13.25;100.00;101986.69;5099869;27;44966;-75
2023/09/25 07:01:44;;;;;;;;;16.00;12.00;;;;;13.32;100.00;101964.28;5104667;27;45496;-75
2023/09/25 07:04:09;;;;;;;;;6.00;5.67;;;;;13.60;100.00;101982.63;5094284;27;44854;-75
2023/09/25 07:06:35;;;;;;;;;9.00;6.67;;;;;13.75;100.00;101983.78;5098542;27;44896;-75
2023/09/25 07:09:01;;;;;;;;;7.67;7.00;;;;;13.94;100.00;101990.94;5089459;27;45362;-74
2023/09/25 07:11:27;;;;;;;;;7.00;6.00;;;;;14.06;100.00;101981.59;5094355;27;46669;-75
2023/09/25 07:13:53;;;;;;;;;7.00;5.67;;;;;14.25;100.00;101987.84;5085309;27;45375;-75
2023/09/25 07:16:18;;;;;;;;;4.00;4.00;;;;;14.38;100.00;101981.09;5108538;27;45400;-74
2023/09/25 07:18:46;;;;;;;;;7.33;5.67;;;;;14.31;100.00;101960.97;5100299;27;45419;-75
2023/09/25 07:21:11;;;;;;;;;5.67;4.67;;;;;14.56;100.00;101990.91;5115696;27;45351;-74
2023/09/25 07:23:37;;;;;;;;;5.33;4.00;;;;;14.63;100.00;101990.66;5116955;27;45385;-74
2023/09/25 07:26:09;;;;;;;;;5.00;5.00;;;;;14.72;100.00;101990.22;5118763;27;45184;-74
2023/09/25 07:28:36;;;;;;;;;4.67;4.67;;;;;14.77;100.00;101989.06;5115773;27;45507;-74
2023/09/25 07:31:02;;;;;;;;;6.67;6.67;;;;;14.81;100.00;101995.13;5085920;27;45636;-74
2023/09/25 07:33:31;;;;;;;;;7.67;7.00;;;;;14.87;100.00;101992.19;5094412;27;45369;-75
2023/09/25 07:35:58;;;;;;;;;3.67;3.67;;;;;14.93;100.00;101995.44;5093948;27;45330;-75
2023/09/25 07:38:23;;;;;;;;;7.33;5.00;;;;;14.96;100.00;101997.06;5094573;27;45494;-75
2023/09/25 07:40:48;;;;;;;;;8.00;5.00;;;;;15.08;100.00;102000.03;5095774;27;46646;-75
2023/09/25 07:43:19;;;;;;;;;5.67;5.67;;;;;15.08;100.00;101980.53;5092201;27;45448;-75
2023/09/25 07:45:51;;;;;;;;;4.67;4.67;;;;;15.28;100.00;101993.75;5118963;27;45293;-74
2023/09/25 07:48:19;;;;;;;;;6.00;6.00;;;;;15.38;100.00;102002.22;5089375;27;45419;-75
2023/09/25 07:50:45;;;;;;;;;8.00;5.00;;;;;15.45;100.00;101993.81;5097158;27;47288;-74
2023/09/25 07:53:11;;;;;;;;;5.33;3.67;;;;;15.59;100.00;101996.72;5099996;27;45572;-74
2023/09/25 07:55:37;;;;;;;;;5.67;3.67;;;;;15.71;100.00;101995.25;5098607;27;45408;-75
2023/09/25 07:58:04;;;;;;;;;8.00;5.33;;;;;15.81;100.00;102000.97;5092038;27;45318;-74
2023/09/25 08:00:37;;;;;;;;;7.00;6.00;;;;;15.95;100.00;102002.03;5098697;27;45353;-74
2023/09/25 08:03:05;;;;;;;;;5.33;5.00;;;;;16.19;100.00;102010.59;5093203;27;45475;-75
2023/09/25 08:05:31;;;;;;;;;5.00;5.00;;;;;16.32;96.10;101987.69;5096942;27;45289;-74
2023/09/25 08:07:56;;;;;;;;;5.67;5.67;;;;;16.45;99.61;101987.88;5090803;27;45421;-75
2023/09/25 08:10:21;;;;;;;;;4.00;4.00;;;;;16.66;97.59;102000.13;5085260;27;45438;-74
2023/09/25 08:12:47;;;;;;;;;5.33;5.33;;;;;16.76;90.93;102004.03;5091363;27;45307;-75
2023/09/25 08:15:13;;;;;;;;;5.67;5.33;;;;;16.87;90.74;102000.78;5087461;27;45358;-75
2023/09/25 08:17:43;;;;;;;;;5.67;4.67;;;;;17.00;92.75;102002.72;5081535;27;45312;-74
2023/09/25 08:20:22;;;;;;;;;11.67;4.00;;;;;17.08;90.08;102011.16;5082208;27;46498;-75
2023/09/25 08:22:51;;;;;;;;;5.00;4.00;;;;;17.05;88.80;101994.41;5082246;27;45298;-74
2023/09/25 08:25:17;;;;;;;;;5.00;4.67;;;;;17.18;89.71;102011.50;5095084;27;45468;-74
2023/09/25 08:27:43;;;;;;;;;6.00;4.33;;;;;17.28;89.81;102006.50;5101819;27;45452;-74
2023/09/25 08:30:09;;;;;;;;;8.67;5.33;;;;;17.34;90.97;102007.03;5115637;27;46327;-75
2023/09/25 08:32:35;;;;;;;;;8.00;3.33;;;;;17.47;85.94;102010.75;5094768;27;45329;-75
2023/09/25 08:35:02;;;;;;;;;4.67;3.67;;;;;17.51;86.70;101992.72;5093913;27;45350;-75
2023/09/25 08:37:27;;;;;;;;;6.67;5.00;;;;;17.58;84.29;101989.63;5101537;27;45595;-75
2023/09/25 08:39:53;;;;;;;;;6.67;5.00;;;;;17.67;85.01;101999.81;5090473;27;45200;-75
2023/09/25 08:42:21;;;;;;;;;4.00;4.00;;;;;17.73;82.50;101993.25;5084935;27;45525;-75
2023/09/25 08:44:53;;;;;;;;;4.00;4.00;;;;;17.79;86.92;102000.94;5091293;27;45299;-75
2023/09/25 08:47:19;;;;;;;;;6.33;4.33;;;;;17.78;83.57;101982.25;5097613;27;45312;-74
2023/09/25 08:49:49;;;;;;;;;6.33;4.00;;;;;18.02;82.06;101992.41;5101208;27;45980;-74
2023/09/25 08:52:15;;;;;;;;;7.67;4.33;;;;;17.95;81.50;101982.16;5096903;27;45438;-74
2023/09/25 08:54:40;;;;;;;;;6.00;4.00;;;;;18.08;84.15;102000.06;5096222;27;45404;-74
2023/09/25 08:57:06;;;;;;;;;3.33;3.00;;;;;18.11;81.81;101988.31;5087450;27;45453;-75
2023/09/25 08:59:35;;;;;;;;;8.33;6.00;;;;;18.15;82.32;102006.78;5117738;27;48175;-75
2023/09/25 09:02:01;;;;;;;;;6.33;5.00;;;;;18.25;81.23;102007.09;5088693;27;45281;-74
2023/09/25 09:04:26;;;;;;;;;6.67;4.33;;;;;18.48;80.79;102013.75;5101275;27;45437;-75
2023/09/25 09:06:51;;;;;;;;;4.00;3.00;;;;;18.70;79.54;102019.53;5100609;27;45418;-75
2023/09/25 09:09:17;;;;;;;;;5.00;4.00;;;;;18.84;78.04;102011.53;5089719;27;47930;-75
2023/09/25 09:11:52;;;;;;;;;2.33;2.33;;;;;18.97;81.27;102017.84;5101517;27;45532;-75
2023/09/25 09:14:46;;;;;;;;;6.67;6.33;;;;;19.09;78.01;102011.69;5100717;27;45380;-74
2023/09/25 09:17:12;;;;;;;;;6.00;5.00;;;;;19.10;75.58;101980.38;5104647;27;45501;-76
2023/09/25 09:19:46;;;;;;;;;6.33;6.00;;;;;19.44;73.00;102016.63;5097535;27;46320;-74
2023/09/25 09:22:13;;;;;;;;;4.33;4.33;;;;;19.58;75.33;102008.56;5099766;27;45693;-74
2023/09/25 09:24:41;;;;;;;;;6.00;5.00;;;;;19.73;69.31;102011.06;5097974;27;45345;-75
2023/09/25 09:27:10;;;;;;;;;4.00;4.00;;;;;19.92;72.38;102016.09;5099125;27;45341;-75
2023/09/25 09:29:38;;;;;;;;;6.00;5.00;;;;;20.11;71.29;102029.16;5078868;27;45375;-74
2023/09/25 09:32:04;;;;;;;;;6.00;4.67;;;;;20.13;69.01;102028.09;5094144;27;45468;-75
2023/09/25 09:34:30;;;;;;;;;6.00;5.00;;;;;20.17;65.67;102034.97;5099757;27;45333;-76
2023/09/25 09:36:56;;;;;;;;;6.33;4.33;;;;;20.09;69.17;102025.72;5100183;27;45472;-75
2023/09/25 09:39:25;;;;;;;;;4.00;4.00;;;;;20.19;69.17;102032.16;5093179;27;45266;-74
2023/09/25 09:41:56;;;;;;;;;5.67;4.00;;;;;20.24;68.78;102027.34;5091794;27;45495;-74
2023/09/25 09:44:22;;;;;;;;;6.00;4.33;;;;;20.28;66.72;102034.28;5087064;27;45252;-74
2023/09/25 09:46:50;;;;;;;;;3.00;3.00;;;;;20.26;70.72;102022.72;5086910;27;45269;-75
2023/09/25 09:49:19;;;;;;;;;5.00;4.00;;;;;20.32;71.92;102021.50;5086856;27;46043;-75
2023/09/25 09:51:45;;;;;;;;;4.67;3.33;;;;;20.24;67.03;102011.25;5100339;27;45454;-75
2023/09/25 09:54:12;;;;;;;;;3.33;3.33;;;;;20.39;66.60;102038.91;5098825;27;45465;-75
2023/09/25 09:56:39;;;;;;;;;4.00;4.00;;;;;20.40;67.57;102038.81;5095663;27;45423;-74
2023/09/25 09:59:05;;;;;;;;;4.00;2.00;;;;;20.41;69.63;102037.84;5095180;27;45350;-74
2023/09/25 10:01:33;;;;;;;;;6.00;5.00;;;;;20.39;68.00;102038.91;5088426;27;45301;-75
2023/09/25 10:04:00;;;;;;;;;3.33;3.00;;;;;20.42;67.43;102034.19;5098176;27;45469;-75
2023/09/25 10:06:28;;;;;;;;;5.00;5.00;;;;;20.36;66.63;102041.81;5100083;27;45345;-75
2023/09/25 10:09:10;;;;;;;;;7.00;5.00;;;;;20.30;67.21;102034.16;5088387;27;45342;-75
2023/09/25 10:11:36;;;;;;;;;6.00;6.00;;;;;20.29;68.31;102038.66;5086030;27;45370;-75
2023/09/25 10:14:05;;;;;;;;;3.00;3.00;;;;;20.18;67.97;102014.34;5100243;27;45306;-74
2023/09/25 10:16:51;;;;;;;;;5.67;3.00;;;;;20.33;67.24;102036.63;5097629;27;45256;-74
2023/09/25 10:19:20;;;;;;;;;7.00;5.00;;;;;20.32;68.16;102032.25;5086562;27;46087;-75
2023/09/25 10:22:11;;;;;;;;;4.00;4.00;;;;;20.34;66.92;102035.69;5082031;27;45353;-75
2023/09/25 10:24:38;;;;;;;;;6.00;5.00;;;;;20.32;68.59;102022.34;5082607;27;45414;-75
2023/09/25 10:27:04;;;;;;;;;3.33;3.33;;;;;20.42;68.66;102041.41;5099997;27;45280;-74
2023/09/25 10:29:30;;;;;;;;;4.33;4.00;;;;;20.40;67.92;102027.19;5099687;27;45536;-75
2023/09/25 10:31:57;;;;;;;;;8.33;5.67;;;;;20.30;70.04;102018.91;5107034;27;46181;-74
2023/09/25 10:34:25;;;;;;;;;6.33;4.67;;;;;20.26;69.26;102025.41;5099841;27;45351;-75
2023/09/25 10:36:59;;;;;;;;;6.67;5.00;;;;;20.22;72.67;102015.88;5091832;27;45259;-74
2023/09/25 10:39:28;;;;;;;;;3.00;3.00;;;;;20.31;72.48;102028.69;5079067;27;45637;-74
2023/09/25 10:42:05;;;;;;;;;4.33;4.33;;;;;20.25;75.86;102010.28;5092964;27;45365;-75
2023/09/25 10:44:31;;;;;;;;;4.00;3.00;;;;;20.33;77.04;101991.81;5092581;27;45373;-75
2023/09/25 10:47:00;;;;;;;;;3.00;3.00;;;;;20.55;75.38;102018.94;5093671;27;45570;-75
2023/09/25 10:49:27;;;;;;;;;7.67;5.00;;;;;20.61;70.50;102010.47;5090015;27;48277;-74
2023/09/25 10:51:54;;;;;;;;;4.00;4.00;;;;;20.71;73.24;102027.63;5097695;27;45456;-75
2023/09/25 10:54:19;;;;;;;;;3.00;3.00;;;;;20.73;72.81;102008.72;5097935;27;45329;-75
2023/09/25 10:56:45;;;;;;;;;5.33;4.67;;;;;20.69;70.16;101999.16;5095267;27;45442;-75
2023/09/25 10:59:10;;;;;;;;;3.67;3.00;;;;;20.77;71.74;102013.78;5088606;27;46737;-75
2023/09/25 11:01:37;;;;;;;;;5.00;3.00;;;;;20.80;76.72;102020.78;5089429;27;45342;-75
2023/09/25 11:04:03;;;;;;;;;5.00;4.00;;;;;20.71;74.29;102013.38;5098258;27;45316;-75
2023/09/25 11:06:28;;;;;;;;;6.00;5.00;;;;;20.72;71.84;102020.44;5097041;27;45291;-75
2023/09/25 11:09:05;;;;;;;;;4.33;4.33;;;;;20.78;72.77;102023.56;5085948;27;47816;-74
2023/09/25 11:11:31;;;;;;;;;3.33;3.33;;;;;20.74;76.04;102021.22;5099390;27;45383;-75
2023/09/25 11:13:57;;;;;;;;;3.00;3.00;;;;;20.85;77.65;102036.56;5099465;27;45286;-75
2023/09/25 11:16:27;;;;;;;;;3.00;3.00;;;;;20.85;79.79;102028.50;5095685;27;45341;-75